LJLJ/LJU METAR and TAF weather

Enter ICAO airport designator
Station Type Date Time Source
LJLJ METAR 2019/04/25 16:30 UTC NOAA

LJLJ 251630Z 27007KT 9999 FEW055 SCT250 20/10 Q1018 NOSIG


Station Type Date Time Source
LJLJ Decoded METAR 2019/04/25 16:30 UTC NOAA

Ljubljana / Brnik, Slovenia (LJLJ) 46-13N 014-29E 362M
Apr 25, 2019 - 12:30 PM EDT / 2019.04.25 1630 UTC
Wind: from the W (270 degrees) at 8 MPH (7 KT):0
Visibility: greater than 7 mile(s):0
Sky conditions: partly cloudy
Temperature: 68 F (20 C)
Dew Point: 50 F (10 C)
Relative Humidity: 52%
Pressure (altimeter): 30.06 in. Hg (1018 hPa)
ob: LJLJ 251630Z 27007KT 9999 FEW055 SCT250 20/10 Q1018 NOSIG
cycle: 16

Station Type Date Time Source
LJLJ TAF 2019/04/25 15:04 UTC NOAA

TAF LJLJ 251400Z 2515/2615 27005KT 9999 SCT035
TEMPO 2515/2518 26010KT
BECMG 2518/2520 29004KT
BECMG 2609/2612 23010KT
TEMPO 2610/2615 7000 SHRA SCT033TCU BKN045

Example: see airport list